Terminal Aerodrome Forecast
Issued by NWS Anchorage, AK

Home | Current Version | Previous Version | Text Only | Print | Product List | Glossary On
Versions: 1 2 3 4 5 6 7 8 9 10 11 12 13 14 15 16 17 18 19 20 21 22 23 24 25 26 27 28 29 30 31 32 33 34 35 36 37 38 39 40 41 42 43 44 45 46 47 48 49 50
000
FTAK31 PANC 010920 AAC
TAFANC
TAF AMD
PANC 010920Z 0109/0212 06005KT 1/2SM FG SCT003 OVC020
      TEMPO 0109/0112 1/4SM FZFG VV001
     FM011200 35005KT 1/2SM FZFG BKN003
      TEMPO 0112/0114 1/4SM FZFG VV001
     FM011400 35005KT 1/2SM FZFG BKN003
      TEMPO 0116/0120 3SM BR SCT003 BKN025
     FM012000 02005KT P6SM VCFG FEW005 SCT200
     FM020000 02007KT P6SM SCT200=

USA.gov is the U.S. government's official web portal to all federal, state and local government web resources and services.